createdAt,value
2018-03-25T00:01:27.850Z,17.77
2018-03-25T00:03:55.416Z,17.60
2018-03-25T00:06:23.654Z,18.17
2018-03-25T00:08:51.130Z,18.03
2018-03-25T00:11:18.646Z,17.77
2018-03-25T00:13:46.163Z,18.03
2018-03-25T00:16:13.724Z,18.77
2018-03-25T00:18:41.285Z,17.47
2018-03-25T00:21:08.846Z,17.77
2018-03-25T00:23:36.616Z,17.50
2018-03-25T00:26:04.986Z,18.13
2018-03-25T00:28:32.574Z,16.83
2018-03-25T00:31:00.189Z,17.03
2018-03-25T00:33:27.713Z,17.70
2018-03-25T00:35:55.435Z,18.53
2018-03-25T00:38:23.074Z,18.13
2018-03-25T00:40:50.666Z,17.97
2018-03-25T00:43:19.239Z,18.23
2018-03-25T00:45:47.627Z,17.93
2018-03-25T00:48:15.878Z,17.63
2018-03-25T00:50:43.453Z,18.73
2018-03-25T00:53:11.337Z,17.47
2018-03-25T00:55:38.929Z,18.23
2018-03-25T00:58:06.536Z,18.60
2018-03-25T01:00:34.301Z,18.87
2018-03-25T01:03:01.971Z,20.10
2018-03-25T01:05:30.349Z,19.13
2018-03-25T01:07:58.117Z,18.63
2018-03-25T01:10:26.082Z,18.23
2018-03-25T01:12:53.652Z,18.80
2018-03-25T01:15:21.926Z,18.60
2018-03-25T01:17:50.170Z,18.53
2018-03-25T01:20:17.682Z,17.80
2018-03-25T01:22:46.013Z,19.53
2018-03-25T01:25:13.593Z,18.73
2018-03-25T01:27:41.171Z,18.70
2018-03-25T01:30:09.938Z,19.23
2018-03-25T01:32:37.745Z,18.73
2018-03-25T01:35:06.081Z,20.13
2018-03-25T01:37:33.637Z,18.07
2018-03-25T01:40:01.206Z,19.67
2018-03-25T01:42:28.914Z,18.60
2018-03-25T01:44:56.550Z,19.30
2018-03-25T01:47:24.806Z,20.60
2018-03-25T01:49:52.383Z,20.07
2018-03-25T01:52:21.466Z,20.23
2018-03-25T01:54:49.838Z,18.87
2018-03-25T01:57:17.638Z,19.60
2018-03-25T01:59:45.386Z,19.13
2018-03-25T02:02:13.650Z,20.93
2018-03-25T02:04:41.613Z,19.70
2018-03-25T02:07:09.279Z,19.93
2018-03-25T02:09:37.354Z,21.30
2018-03-25T02:12:05.018Z,21.30
2018-03-25T02:14:32.881Z,20.80
2018-03-25T02:17:01.210Z,20.50
2018-03-25T02:19:28.775Z,19.87
2018-03-25T02:21:56.490Z,19.77
2018-03-25T02:24:24.153Z,21.00
2018-03-25T02:26:52.934Z,20.20
2018-03-25T02:29:20.698Z,19.63
2018-03-25T02:31:48.471Z,20.37
2018-03-25T02:34:17.559Z,20.73
2018-03-25T02:36:45.218Z,19.77
2018-03-25T02:39:12.885Z,20.10
2018-03-25T02:41:40.470Z,20.83
2018-03-25T02:44:08.921Z,18.87
2018-03-25T02:46:36.590Z,19.80
2018-03-25T02:49:04.354Z,19.67
2018-03-25T02:51:32.123Z,19.80
2018-03-25T02:54:01.115Z,20.57
2018-03-25T02:56:28.887Z,20.43
2018-03-25T02:58:58.227Z,20.23
2018-03-25T03:01:26.064Z,20.83
2018-03-25T03:03:54.425Z,20.13
2018-03-25T03:06:22.189Z,21.03
2018-03-25T03:08:49.953Z,20.07
2018-03-25T03:11:17.726Z,21.50
2018-03-25T03:13:46.041Z,21.47
2018-03-25T03:16:13.898Z,20.93
2018-03-25T03:18:41.473Z,21.00
2018-03-25T03:21:09.083Z,20.40
2018-03-25T03:23:36.578Z,19.70
2018-03-25T03:26:04.156Z,20.60
2018-03-25T03:28:32.065Z,20.23
2018-03-25T03:30:59.736Z,20.10
2018-03-25T03:33:28.109Z,20.13
2018-03-25T03:35:55.873Z,20.67
2018-03-25T03:38:23.665Z,19.40
2018-03-25T03:40:51.301Z,18.83
2018-03-25T03:43:18.873Z,19.97
2018-03-25T03:45:46.545Z,19.07
2018-03-25T03:48:14.192Z,18.70
2018-03-25T03:50:42.765Z,19.03
2018-03-25T03:53:10.425Z,20.03
2018-03-25T03:55:38.089Z,18.93
2018-03-25T03:58:06.151Z,18.27
2018-03-25T04:00:33.723Z,20.93
2018-03-25T04:03:01.277Z,21.03
2018-03-25T04:05:28.842Z,21.20
2018-03-25T04:07:56.402Z,21.03
2018-03-25T04:10:23.961Z,19.90
2018-03-25T04:12:51.661Z,19.83
2018-03-25T04:15:19.302Z,19.27
2018-03-25T04:17:47.633Z,19.33
2018-03-25T04:20:15.111Z,20.37
2018-03-25T04:22:42.681Z,20.83
2018-03-25T04:25:10.441Z,19.63
2018-03-25T04:27:38.105Z,20.57
2018-03-25T04:30:05.771Z,21.00
2018-03-25T04:32:33.537Z,19.73
2018-03-25T04:35:01.196Z,20.33
2018-03-25T04:37:29.678Z,21.13
2018-03-25T04:39:57.245Z,20.97
2018-03-25T04:42:25.520Z,20.97
2018-03-25T04:44:53.080Z,20.93
2018-03-25T04:47:20.648Z,22.03
2018-03-25T04:49:49.426Z,22.20
2018-03-25T04:52:17.196Z,21.03
2018-03-25T04:54:44.775Z,20.33
2018-03-25T04:57:13.233Z,20.87
2018-03-25T04:59:40.825Z,21.83
2018-03-25T05:02:08.358Z,21.73
2018-03-25T05:04:35.834Z,22.13
2018-03-25T05:07:04.677Z,20.13
2018-03-25T05:09:32.262Z,19.27
2018-03-25T05:12:00.127Z,20.03
2018-03-25T05:14:28.524Z,21.43
2018-03-25T05:16:56.796Z,20.93
2018-03-25T05:19:25.476Z,21.13
2018-03-25T05:21:53.798Z,21.47
2018-03-25T05:24:21.422Z,20.07
2018-03-25T05:26:49.681Z,20.47
2018-03-25T05:29:17.241Z,19.97
2018-03-25T05:31:45.109Z,20.57
2018-03-25T05:34:12.589Z,19.40
2018-03-25T05:36:40.945Z,20.13
2018-03-25T05:39:08.714Z,20.90
2018-03-25T05:41:36.899Z,20.30
2018-03-25T05:44:05.262Z,20.40
2018-03-25T05:46:32.768Z,21.90
2018-03-25T05:49:00.243Z,22.77
2018-03-25T05:51:27.842Z,23.80
2018-03-25T05:53:56.271Z,25.50
2018-03-25T05:56:25.216Z,25.47
2018-03-25T05:58:53.035Z,22.63
2018-03-25T06:01:20.556Z,22.60
2018-03-25T06:03:48.097Z,22.40
2018-03-25T06:06:15.658Z,23.43
2018-03-25T06:08:43.931Z,24.83
2018-03-25T06:11:11.589Z,24.23
2018-03-25T06:13:39.070Z,21.63
2018-03-25T06:16:07.430Z,20.33
2018-03-25T06:18:34.989Z,24.73
2018-03-25T06:21:02.551Z,21.93
2018-03-25T06:23:30.115Z,23.90
2018-03-25T06:25:57.586Z,25.97
2018-03-25T06:28:26.762Z,23.90
2018-03-25T06:30:54.225Z,24.77
2018-03-25T06:33:21.986Z,26.13
2018-03-25T06:35:49.755Z,26.37
2018-03-25T06:38:17.994Z,26.20
2018-03-25T06:40:45.512Z,26.33
2018-03-25T06:43:13.141Z,25.97
2018-03-25T06:45:42.274Z,24.80
2018-03-25T06:48:10.066Z,26.00
2018-03-25T06:50:37.530Z,24.50
2018-03-25T06:53:05.425Z,27.30
2018-03-25T06:55:32.885Z,24.53
2018-03-25T06:58:00.463Z,22.70
2018-03-25T07:00:28.929Z,20.30
2018-03-25T07:02:56.539Z,20.07
2018-03-25T07:05:24.357Z,20.30
2018-03-25T07:07:52.645Z,20.83
2018-03-25T07:10:20.114Z,22.40
2018-03-25T07:12:48.359Z,21.43
2018-03-25T07:15:15.846Z,20.97
2018-03-25T07:17:44.111Z,21.40
2018-03-25T07:20:11.728Z,21.70
2018-03-25T07:22:39.889Z,22.30
2018-03-25T07:25:07.550Z,23.20
2018-03-25T07:27:35.014Z,21.77
2018-03-25T07:30:02.488Z,22.33
2018-03-25T07:32:30.718Z,23.23
2018-03-25T07:34:59.007Z,21.07
2018-03-25T07:37:26.529Z,22.07
2018-03-25T07:39:54.085Z,23.13
2018-03-25T07:42:21.637Z,21.97
2018-03-25T07:44:49.530Z,22.60
2018-03-25T07:47:17.026Z,21.77
2018-03-25T07:49:44.498Z,21.87
2018-03-25T07:52:11.966Z,21.23
2018-03-25T07:54:39.558Z,20.03
2018-03-25T07:57:07.435Z,21.00
2018-03-25T07:59:35.673Z,20.43
2018-03-25T08:02:03.146Z,21.67
2018-03-25T08:04:30.609Z,21.37
2018-03-25T08:06:58.069Z,22.70
2018-03-25T08:09:25.983Z,22.77
2018-03-25T08:11:53.453Z,22.83
2018-03-25T08:14:20.959Z,23.53
2018-03-25T08:16:48.423Z,22.23
2018-03-25T08:19:16.670Z,23.03
2018-03-25T08:21:44.455Z,21.80
2018-03-25T08:24:12.014Z,22.33
2018-03-25T08:26:39.574Z,20.90
2018-03-25T08:29:07.121Z,21.93
2018-03-25T08:31:34.585Z,21.10
2018-03-25T08:34:02.449Z,21.47
2018-03-25T08:36:30.043Z,21.40
2018-03-25T08:38:58.281Z,22.13
2018-03-25T08:41:25.753Z,21.73
2018-03-25T08:43:53.319Z,21.00
2018-03-25T08:46:21.658Z,22.13
2018-03-25T08:48:49.142Z,22.07
2018-03-25T08:51:16.617Z,22.17
2018-03-25T08:53:44.952Z,21.80
2018-03-25T08:56:12.437Z,21.70
2018-03-25T08:58:39.979Z,20.87
2018-03-25T09:01:07.455Z,21.63
2018-03-25T09:03:34.927Z,21.57
2018-03-25T09:06:03.202Z,21.57
2018-03-25T09:08:31.441Z,21.63
2018-03-25T09:10:58.957Z,20.70
2018-03-25T09:13:26.590Z,21.63
2018-03-25T09:15:54.357Z,22.00
2018-03-25T09:18:22.843Z,22.53
2018-03-25T09:20:51.097Z,21.87
2018-03-25T09:23:18.671Z,21.97
2018-03-25T09:25:47.050Z,21.80
2018-03-25T09:28:14.605Z,21.07
2018-03-25T09:30:42.138Z,22.10
2018-03-25T09:33:09.616Z,22.93
2018-03-25T09:35:37.130Z,21.43
2018-03-25T09:38:04.634Z,21.50
2018-03-25T09:40:32.196Z,21.90
2018-03-25T09:43:00.574Z,21.73
2018-03-25T09:45:28.068Z,22.10
2018-03-25T09:47:55.549Z,21.87
2018-03-25T09:50:23.146Z,21.00
2018-03-25T09:52:50.631Z,21.87
2018-03-25T09:55:19.093Z,22.33
2018-03-25T09:57:47.069Z,21.50
2018-03-25T10:00:15.559Z,21.53
2018-03-25T10:02:49.970Z,21.57
2018-03-25T10:05:17.445Z,22.67
2018-03-25T10:07:45.926Z,21.30
2018-03-25T10:10:14.386Z,21.10
2018-03-25T10:12:42.149Z,21.93
2018-03-25T10:15:09.661Z,22.30
2018-03-25T10:17:37.130Z,21.43
2018-03-25T10:20:05.034Z,22.93
2018-03-25T10:22:32.607Z,22.37
2018-03-25T10:25:00.895Z,23.13
2018-03-25T10:27:28.442Z,22.87
2018-03-25T10:29:56.719Z,22.53
2018-03-25T10:32:25.151Z,21.90
2018-03-25T10:34:52.622Z,21.37
2018-03-25T10:37:20.089Z,21.53
2018-03-25T10:39:47.587Z,21.40
2018-03-25T10:42:16.142Z,20.67
2018-03-25T10:44:44.010Z,21.83
2018-03-25T10:47:12.430Z,20.73
2018-03-25T10:49:40.153Z,20.80
2018-03-25T10:52:07.640Z,21.10
2018-03-25T10:54:35.119Z,22.40
2018-03-25T10:57:02.657Z,22.07
2018-03-25T10:59:31.278Z,22.20
2018-03-25T11:01:58.750Z,22.47
2018-03-25T11:04:26.224Z,21.73
2018-03-25T11:06:53.751Z,21.60
2018-03-25T11:09:21.450Z,21.33
2018-03-25T11:11:48.965Z,20.77
2018-03-25T11:14:16.449Z,21.83
2018-03-25T11:16:43.947Z,22.27
2018-03-25T11:19:12.433Z,23.27
2018-03-25T11:21:39.918Z,22.57
2018-03-25T11:24:07.386Z,22.00
2018-03-25T11:26:34.887Z,22.77
2018-03-25T11:29:02.440Z,22.33
2018-03-25T11:31:30.060Z,21.67
2018-03-25T11:33:57.536Z,21.40
2018-03-25T11:36:25.010Z,21.20
2018-03-25T11:38:52.782Z,21.53
2018-03-25T11:41:20.345Z,15.13
2018-03-25T11:43:47.906Z,17.77
2018-03-25T11:46:16.177Z,21.57
2018-03-25T11:48:44.430Z,13.00
2018-03-25T11:51:12.016Z,18.43
2018-03-25T11:53:40.337Z,13.10
2018-03-25T11:56:07.806Z,22.67
2018-03-25T11:58:35.273Z,18.53
2018-03-25T12:01:02.749Z,17.70
2018-03-25T12:03:30.221Z,22.47
2018-03-25T12:05:57.895Z,22.70
2018-03-25T12:08:26.139Z,21.13
2018-03-25T12:10:53.637Z,18.60
2018-03-25T12:13:21.906Z,22.03
2018-03-25T12:15:50.167Z,20.83
2018-03-25T12:18:18.463Z,20.30
2018-03-25T12:20:46.706Z,17.97
2018-03-25T12:23:14.582Z,21.40
2018-03-25T12:25:42.062Z,23.40
2018-03-25T12:28:10.418Z,20.13
2018-03-25T12:30:38.963Z,15.30
2018-03-25T12:33:06.494Z,20.67
2018-03-25T12:35:33.974Z,16.37
2018-03-25T12:38:01.507Z,20.73
2018-03-25T12:40:29.010Z,18.43
2018-03-25T12:42:56.502Z,20.47
2018-03-25T12:45:24.771Z,18.83
2018-03-25T12:47:53.010Z,17.00
2018-03-25T12:50:20.494Z,19.43
2018-03-25T12:52:47.988Z,18.93
2018-03-25T12:55:15.458Z,19.37
2018-03-25T12:57:42.961Z,18.23
2018-03-25T13:00:10.688Z,21.07
2018-03-25T13:02:38.169Z,15.03
2018-03-25T13:05:05.653Z,21.60
2018-03-25T13:07:33.220Z,21.20
2018-03-25T13:10:01.593Z,21.40
2018-03-25T13:12:29.852Z,19.67
2018-03-25T13:14:57.331Z,20.80
2018-03-25T13:17:25.813Z,21.87
2018-03-25T13:19:54.117Z,21.20
2018-03-25T13:22:21.633Z,20.60
2018-03-25T13:24:49.193Z,20.70
2018-03-25T13:27:16.760Z,20.73
2018-03-25T13:29:45.434Z,20.83
2018-03-25T13:32:12.911Z,22.03
2018-03-25T13:34:41.181Z,21.47
2018-03-25T13:37:09.464Z,21.00
2018-03-25T13:39:37.707Z,19.43
2018-03-25T13:42:05.181Z,13.87
2018-03-25T13:44:32.951Z,14.17
2018-03-25T13:47:01.186Z,10.03
2018-03-25T13:49:28.678Z,19.37
2018-03-25T13:51:56.241Z,18.33
2018-03-25T13:54:23.898Z,16.37
2018-03-25T13:56:51.369Z,15.10
2018-03-25T13:59:19.615Z,15.80
2018-03-25T14:01:47.289Z,16.47
2018-03-25T14:04:14.847Z,10.83
2018-03-25T14:06:42.428Z,16.63
2018-03-25T14:09:10.898Z,14.17
2018-03-25T14:11:39.374Z,16.93
2018-03-25T14:14:07.155Z,17.00
2018-03-25T14:16:35.498Z,17.47
2018-03-25T14:19:02.965Z,14.83
2018-03-25T14:21:32.061Z,14.17
2018-03-25T14:23:59.539Z,17.67
2018-03-25T14:26:28.011Z,17.67
2018-03-25T14:28:56.383Z,14.50
2018-03-25T14:31:24.309Z,16.40
2018-03-25T14:33:51.996Z,17.20
2018-03-25T14:36:19.475Z,16.77
2018-03-25T14:38:46.946Z,16.00
2018-03-25T14:41:15.204Z,19.83
2018-03-25T14:43:42.672Z,19.67
2018-03-25T14:46:11.246Z,19.23
2018-03-25T14:48:39.021Z,18.77
2018-03-25T14:51:07.277Z,20.40
2018-03-25T14:53:34.857Z,18.87
2018-03-25T14:56:03.222Z,18.97
2018-03-25T14:58:30.730Z,19.90
2018-03-25T15:00:58.238Z,19.90
2018-03-25T15:03:25.756Z,21.50
2018-03-25T15:05:53.367Z,21.27
2018-03-25T15:08:21.647Z,20.30
2018-03-25T15:10:49.958Z,20.53
2018-03-25T15:13:17.489Z,19.37
2018-03-25T15:15:45.758Z,20.87
2018-03-25T15:18:13.590Z,19.47
2018-03-25T15:20:41.153Z,19.93
2018-03-25T15:23:08.635Z,20.07
2018-03-25T15:25:36.102Z,20.33
2018-03-25T15:28:03.864Z,18.90
2018-03-25T15:30:32.485Z,19.00
2018-03-25T15:33:00.007Z,19.43
2018-03-25T15:35:28.581Z,19.00
2018-03-25T15:37:56.425Z,18.90
2018-03-25T15:40:24.639Z,19.43
2018-03-25T15:42:52.800Z,18.47
2018-03-25T15:45:20.361Z,19.37
2018-03-25T15:47:47.942Z,20.17
2018-03-25T15:50:16.502Z,19.07
2018-03-25T15:52:44.066Z,19.40
2018-03-25T15:55:11.640Z,19.00
2018-03-25T15:57:39.911Z,19.17
2018-03-25T16:00:08.158Z,19.40
2018-03-25T16:02:36.038Z,18.53
2018-03-25T16:05:03.516Z,19.17
2018-03-25T16:07:31.763Z,18.47
2018-03-25T16:10:00.063Z,18.53
2018-03-25T16:12:28.342Z,18.93
2018-03-25T16:14:56.819Z,17.27
2018-03-25T16:17:25.189Z,17.80
2018-03-25T16:19:52.951Z,18.17
2018-03-25T16:22:20.535Z,18.83
2018-03-25T16:24:48.806Z,19.17
2018-03-25T16:27:17.046Z,16.07
2018-03-25T16:29:44.566Z,15.90
2018-03-25T16:32:12.589Z,15.73
2018-03-25T16:34:40.058Z,15.93
2018-03-25T16:37:07.686Z,15.00
2018-03-25T16:39:35.175Z,16.43
2018-03-25T16:42:02.774Z,15.40
2018-03-25T16:44:30.501Z,14.93
2018-03-25T16:46:57.985Z,14.47
2018-03-25T16:49:25.457Z,15.13
2018-03-25T16:51:52.938Z,11.60
2018-03-25T16:54:20.467Z,9.63
2018-03-25T16:56:47.998Z,11.27
2018-03-25T16:59:16.271Z,11.97
2018-03-25T17:01:44.509Z,10.87
2018-03-25T17:04:13.443Z,11.33
2018-03-25T17:06:42.027Z,11.33
2018-03-25T17:09:10.345Z,11.67
2018-03-25T17:11:37.816Z,11.37
2018-03-25T17:14:05.306Z,12.17
2018-03-25T17:16:32.790Z,11.43
2018-03-25T17:19:00.273Z,11.63
2018-03-25T17:21:27.874Z,11.03
2018-03-25T17:23:55.446Z,11.53
2018-03-25T17:26:23.682Z,13.27
2018-03-25T17:28:51.154Z,15.97
2018-03-25T17:31:18.629Z,16.80
2018-03-25T17:33:47.116Z,17.67
2018-03-25T17:36:14.782Z,16.43
2018-03-25T17:38:43.199Z,16.27
2018-03-25T17:41:10.743Z,16.30
2018-03-25T17:43:38.998Z,14.67
2018-03-25T17:46:06.555Z,17.43
2018-03-25T17:48:35.035Z,18.23
2018-03-25T17:51:02.698Z,19.70
2018-03-25T17:53:30.165Z,17.33
2018-03-25T17:55:58.492Z,14.43
2018-03-25T17:58:25.999Z,10.87
2018-03-25T18:00:54.261Z,11.77
2018-03-25T18:03:22.125Z,11.77
2018-03-25T18:05:49.691Z,11.30
2018-03-25T18:08:17.156Z,10.77
2018-03-25T18:10:44.625Z,9.77
2018-03-25T18:13:12.852Z,9.87
2018-03-25T18:15:40.380Z,9.30
2018-03-25T18:18:07.907Z,9.27
2018-03-25T18:20:36.181Z,9.20
2018-03-25T18:23:04.658Z,9.60
2018-03-25T18:25:32.930Z,15.00
2018-03-25T18:28:00.850Z,11.50
2018-03-25T18:30:28.727Z,10.50
2018-03-25T18:32:56.899Z,9.60
2018-03-25T18:35:24.511Z,14.27
2018-03-25T18:37:52.751Z,11.17
2018-03-25T18:40:20.217Z,8.90
2018-03-25T18:42:47.798Z,9.80
2018-03-25T18:45:15.292Z,12.27
2018-03-25T18:47:43.251Z,10.27
2018-03-25T18:50:10.787Z,12.93
2018-03-25T18:52:39.075Z,21.73
2018-03-25T18:55:07.546Z,15.17
2018-03-25T18:57:35.777Z,12.50
2018-03-25T19:00:03.483Z,10.40
2018-03-25T19:02:31.150Z,9.10
2018-03-25T19:04:58.711Z,9.00
2018-03-25T19:07:26.945Z,9.20
2018-03-25T19:09:54.501Z,8.83
2018-03-25T19:12:22.731Z,8.73
2018-03-25T19:14:50.995Z,8.70
2018-03-25T19:17:18.550Z,9.27
2018-03-25T19:19:46.264Z,8.53
2018-03-25T19:22:13.983Z,8.37
2018-03-25T19:24:42.254Z,8.50
2018-03-25T19:27:09.809Z,9.43
2018-03-25T19:29:37.427Z,10.53
2018-03-25T19:32:04.948Z,10.13
2018-03-25T19:34:33.182Z,9.50
2018-03-25T19:37:01.069Z,9.47
2018-03-25T19:39:28.551Z,10.50
2018-03-25T19:41:56.827Z,10.13
2018-03-25T19:44:25.107Z,10.20
2018-03-25T19:46:53.366Z,9.73
2018-03-25T19:49:22.317Z,10.73
2018-03-25T19:51:50.535Z,10.10
2018-03-25T19:54:18.097Z,9.57
2018-03-25T19:56:45.662Z,9.50
2018-03-25T19:59:13.929Z,10.10
2018-03-25T20:01:41.490Z,10.23
2018-03-25T20:04:09.254Z,11.10
2018-03-25T20:06:36.819Z,12.47
2018-03-25T20:09:04.399Z,13.27
2018-03-25T20:11:32.629Z,12.73
2018-03-25T20:14:00.198Z,13.80
2018-03-25T20:16:27.774Z,12.93
2018-03-25T20:18:55.241Z,12.13
2018-03-25T20:21:22.810Z,12.83
2018-03-25T20:23:51.477Z,13.00
2018-03-25T20:26:19.254Z,12.83
2018-03-25T20:28:47.527Z,13.30
2018-03-25T20:31:15.091Z,13.73
2018-03-25T20:33:43.367Z,13.23
2018-03-25T20:36:11.217Z,13.27
2018-03-25T20:38:38.782Z,13.67
2018-03-25T20:41:06.351Z,16.13
2018-03-25T20:43:34.648Z,15.80
2018-03-25T20:46:02.127Z,14.90
2018-03-25T20:48:29.710Z,15.87
2018-03-25T20:50:57.207Z,15.03
2018-03-25T20:53:25.438Z,14.53
2018-03-25T20:55:52.947Z,13.50
2018-03-25T20:58:21.519Z,13.17
2018-03-25T21:00:49.073Z,13.20
2018-03-25T21:03:16.629Z,12.70
2018-03-25T21:05:44.199Z,12.43
2018-03-25T21:08:11.762Z,11.97
2018-03-25T21:10:40.234Z,12.60
2018-03-25T21:13:07.838Z,13.40
2018-03-25T21:15:35.354Z,13.83
2018-03-25T21:18:02.921Z,14.83
2018-03-25T21:20:31.190Z,14.67
2018-03-25T21:22:58.949Z,14.80
2018-03-25T21:25:26.519Z,14.83
2018-03-25T21:27:54.083Z,15.73
2018-03-25T21:30:22.445Z,15.40
2018-03-25T21:32:49.985Z,15.33
2018-03-25T21:35:17.781Z,15.27
2018-03-25T21:37:45.314Z,16.00
2018-03-25T21:40:12.901Z,14.97
2018-03-25T21:42:40.668Z,15.70
2018-03-25T21:45:09.046Z,16.57
2018-03-25T21:47:36.516Z,16.53
2018-03-25T21:50:04.782Z,15.57
2018-03-25T21:52:33.053Z,14.33
2018-03-25T21:55:00.750Z,14.67
2018-03-25T21:57:28.274Z,14.63
2018-03-25T21:59:56.064Z,15.07
2018-03-25T22:02:23.601Z,15.03
2018-03-25T22:04:52.375Z,14.50
2018-03-25T22:07:19.951Z,17.20
2018-03-25T22:09:47.575Z,17.13
2018-03-25T22:12:15.057Z,16.57
2018-03-25T22:14:42.521Z,16.20
2018-03-25T22:17:10.134Z,16.30
2018-03-25T22:19:37.655Z,15.37
2018-03-25T22:22:05.885Z,14.90
2018-03-25T22:24:33.349Z,14.90
2018-03-25T22:27:01.138Z,14.30
2018-03-25T22:29:28.681Z,14.67
2018-03-25T22:31:56.266Z,15.57
2018-03-25T22:34:24.050Z,15.63
2018-03-25T22:36:52.314Z,16.07
2018-03-25T22:39:20.785Z,15.50
2018-03-25T22:41:48.357Z,16.07
2018-03-25T22:44:16.645Z,16.33
2018-03-25T22:46:44.890Z,16.73
2018-03-25T22:49:12.446Z,17.50
2018-03-25T22:51:39.906Z,17.60
2018-03-25T22:54:08.914Z,18.33
2018-03-25T22:56:36.473Z,18.03
2018-03-25T22:59:04.037Z,18.03
2018-03-25T23:01:32.505Z,17.57
2018-03-25T23:04:00.081Z,17.53
2018-03-25T23:06:28.319Z,17.03
2018-03-25T23:08:55.821Z,15.93
2018-03-25T23:11:24.094Z,16.40
2018-03-25T23:13:52.393Z,15.23
2018-03-25T23:16:20.122Z,15.13
2018-03-25T23:18:47.694Z,14.87
2018-03-25T23:21:15.245Z,13.93
2018-03-25T23:23:43.009Z,14.77
2018-03-25T23:26:10.675Z,15.83
2018-03-25T23:28:39.458Z,16.17
2018-03-25T23:31:07.018Z,16.50
2018-03-25T23:33:34.577Z,16.13
2018-03-25T23:36:02.143Z,16.70
2018-03-25T23:38:29.719Z,18.27
2018-03-25T23:40:58.290Z,17.03
2018-03-25T23:43:26.557Z,17.50
2018-03-25T23:45:54.122Z,17.37
2018-03-25T23:48:21.688Z,18.83
2018-03-25T23:50:49.973Z,17.53
2018-03-25T23:53:18.538Z,16.97
2018-03-25T23:55:46.090Z,15.33
2018-03-25T23:58:13.641Z,15.83
